createdAt,value
2019-06-08T00:01:16.736Z,92.87
2019-06-08T00:03:43.147Z,92.97
2019-06-08T00:06:09.735Z,93.56
2019-06-08T00:08:35.601Z,94.12
2019-06-08T00:11:01.510Z,93.91
2019-06-08T00:13:27.970Z,94.75
2019-06-08T00:15:53.851Z,94.82
2019-06-08T00:18:19.787Z,95.11
2019-06-08T00:20:45.673Z,95.20
2019-06-08T00:23:11.543Z,95.40
2019-06-08T00:25:37.882Z,95.46
2019-06-08T00:28:03.739Z,95.16
2019-06-08T00:30:30.711Z,95.33
2019-06-08T00:32:57.039Z,95.44
2019-06-08T00:35:22.988Z,95.49
2019-06-08T00:37:49.464Z,95.62
2019-06-08T00:40:15.713Z,95.66
2019-06-08T00:42:42.948Z,95.17
2019-06-08T00:45:09.013Z,95.43
2019-06-08T00:47:47.066Z,95.37
2019-06-08T00:50:05.272Z,95.33
2019-06-08T00:52:31.156Z,95.11
2019-06-08T00:54:57.016Z,95.46
2019-06-08T00:57:23.849Z,95.82
2019-06-08T00:59:49.823Z,95.49
2019-06-08T01:02:15.746Z,95.44
2019-06-08T01:04:41.946Z,95.47
2019-06-08T01:07:07.837Z,95.18
2019-06-08T01:09:33.704Z,95.10
2019-06-08T01:11:59.599Z,95.42
2019-06-08T01:14:25.457Z,95.60
2019-06-08T01:16:51.456Z,95.59
2019-06-08T01:19:17.331Z,95.68
2019-06-08T01:21:43.393Z,95.52
2019-06-08T01:24:09.263Z,95.43
2019-06-08T01:26:35.153Z,95.64
2019-06-08T01:29:01.673Z,95.74
2019-06-08T01:31:28.356Z,95.72
2019-06-08T01:33:54.348Z,95.62
2019-06-08T01:36:20.687Z,95.90
2019-06-08T01:38:46.732Z,95.91
2019-06-08T01:41:12.596Z,95.49
2019-06-08T01:43:39.215Z,95.59
2019-06-08T01:46:05.675Z,95.27
2019-06-08T01:48:32.353Z,95.29
2019-06-08T01:50:58.365Z,94.97
2019-06-08T01:53:24.892Z,94.87
2019-06-08T01:55:50.756Z,94.96
2019-06-08T01:58:17.321Z,95.02
2019-06-08T02:00:43.276Z,94.95
2019-06-08T02:03:09.198Z,94.87
2019-06-08T02:05:35.074Z,94.75
2019-06-08T02:08:00.962Z,94.74
2019-06-08T02:10:26.946Z,94.24
2019-06-08T02:12:52.842Z,94.32
2019-06-08T02:15:19.212Z,94.26
2019-06-08T02:17:45.418Z,93.91
2019-06-08T02:20:13.376Z,93.90
2019-06-08T02:22:39.448Z,94.15
2019-06-08T02:25:06.320Z,93.84
2019-06-08T02:27:33.572Z,93.98
2019-06-08T02:29:59.491Z,93.92
2019-06-08T02:32:25.383Z,93.77
2019-06-08T02:34:51.247Z,93.52
2019-06-08T02:37:17.120Z,93.37
2019-06-08T02:39:43.031Z,93.19
2019-06-08T02:42:08.884Z,93.21
2019-06-08T02:44:36.290Z,92.85
2019-06-08T02:47:02.315Z,92.86
2019-06-08T02:49:29.106Z,92.81
2019-06-08T02:51:55.171Z,92.73
2019-06-08T02:54:21.553Z,92.83
2019-06-08T02:56:47.829Z,93.23
2019-06-08T02:59:14.405Z,93.37
2019-06-08T03:01:40.839Z,93.06
2019-06-08T03:04:06.824Z,92.49
2019-06-08T03:06:35.085Z,92.69
2019-06-08T03:09:04.169Z,92.69
2019-06-08T03:11:30.537Z,92.51
2019-06-08T03:13:56.512Z,92.09
2019-06-08T03:16:22.378Z,92.08
2019-06-08T03:18:48.260Z,91.76
2019-06-08T03:21:14.119Z,91.51
2019-06-08T03:23:41.513Z,91.54
2019-06-08T03:26:07.875Z,91.44
2019-06-08T03:28:35.607Z,90.94
2019-06-08T03:31:01.523Z,90.17
2019-06-08T03:33:27.675Z,90.20
2019-06-08T03:35:57.581Z,89.94
2019-06-08T03:38:21.378Z,89.71
2019-06-08T03:40:47.234Z,89.87
2019-06-08T03:43:13.097Z,89.69
2019-06-08T03:45:40.660Z,89.80
2019-06-08T03:48:06.649Z,89.21
2019-06-08T03:50:32.535Z,88.97
2019-06-08T03:52:58.394Z,88.83
2019-06-08T03:55:24.284Z,88.89
2019-06-08T03:57:50.275Z,87.90
2019-06-08T04:00:16.361Z,88.18
2019-06-08T04:02:43.734Z,87.96
2019-06-08T04:05:10.283Z,87.54
2019-06-08T04:07:37.583Z,87.47
2019-06-08T04:10:04.730Z,87.05
2019-06-08T04:12:30.590Z,86.83
2019-06-08T04:14:56.481Z,86.64
2019-06-08T04:17:22.381Z,86.33
2019-06-08T04:20:09.069Z,85.94
2019-06-08T04:22:15.991Z,85.49
2019-06-08T04:24:42.429Z,85.23
2019-06-08T04:27:08.731Z,85.14
2019-06-08T04:29:34.627Z,85.10
2019-06-08T04:32:00.483Z,85.46
2019-06-08T04:34:26.400Z,85.28
2019-06-08T04:36:52.244Z,85.56
2019-06-08T04:39:18.629Z,85.18
2019-06-08T04:41:45.411Z,85.03
2019-06-08T04:44:12.258Z,84.74
2019-06-08T04:46:38.302Z,84.73
2019-06-08T04:49:04.250Z,84.65
2019-06-08T04:51:30.105Z,84.63
2019-06-08T04:53:56.029Z,84.54
2019-06-08T04:56:21.921Z,84.02
2019-06-08T04:58:48.986Z,83.52
2019-06-08T05:01:15.582Z,83.83
2019-06-08T05:03:43.303Z,84.01
2019-06-08T05:06:09.250Z,84.14
2019-06-08T05:08:35.134Z,84.54
2019-06-08T05:11:01.029Z,83.91
2019-06-08T05:13:26.893Z,83.93
2019-06-08T05:15:52.773Z,83.43
2019-06-08T05:18:18.648Z,83.40
2019-06-08T05:20:47.237Z,82.86
2019-06-08T05:23:12.290Z,81.70
2019-06-08T05:25:39.096Z,81.04
2019-06-08T05:28:05.033Z,80.71
2019-06-08T05:30:30.916Z,80.48
2019-06-08T05:32:56.778Z,80.55
2019-06-08T05:35:22.696Z,80.81
2019-06-08T05:37:49.718Z,80.99
2019-06-08T05:40:15.969Z,80.68
2019-06-08T05:42:42.773Z,80.68
2019-06-08T05:45:09.782Z,79.65
2019-06-08T05:47:35.760Z,80.16
2019-06-08T05:50:03.820Z,80.57
2019-06-08T05:52:29.706Z,80.25
2019-06-08T05:54:55.574Z,79.79
2019-06-08T05:57:21.461Z,78.25
2019-06-08T05:59:48.158Z,77.82
2019-06-08T06:02:14.142Z,76.42
2019-06-08T06:04:40.872Z,76.17
2019-06-08T06:07:06.890Z,74.49
2019-06-08T06:09:32.964Z,74.24
2019-06-08T06:11:58.844Z,74.31
2019-06-08T06:14:24.701Z,72.58
2019-06-08T06:16:51.341Z,72.49
2019-06-08T06:19:17.255Z,72.09
2019-06-08T06:21:43.150Z,70.98
2019-06-08T06:24:09.003Z,71.20
2019-06-08T06:26:34.892Z,71.78
2019-06-08T06:29:00.760Z,70.91
2019-06-08T06:31:26.736Z,69.82
2019-06-08T06:33:52.599Z,70.06
2019-06-08T06:36:18.473Z,69.83
2019-06-08T06:38:45.829Z,68.84
2019-06-08T06:41:11.827Z,68.80
2019-06-08T06:43:37.714Z,68.61
2019-06-08T06:46:03.571Z,69.20
2019-06-08T06:48:29.456Z,67.80
2019-06-08T06:50:55.320Z,67.23
2019-06-08T06:53:21.196Z,66.36
2019-06-08T06:55:47.057Z,66.67
2019-06-08T06:58:12.946Z,67.67
2019-06-08T07:00:38.812Z,67.94
2019-06-08T07:03:04.754Z,66.62
2019-06-08T07:05:30.602Z,67.24
2019-06-08T07:07:56.585Z,67.87
2019-06-08T07:10:22.445Z,66.56
2019-06-08T07:12:48.666Z,66.82
2019-06-08T07:15:18.389Z,65.55
2019-06-08T07:17:44.271Z,66.80
2019-06-08T07:20:10.229Z,64.61
2019-06-08T07:22:36.118Z,65.54
2019-06-08T07:25:02.879Z,64.25
2019-06-08T07:27:28.776Z,64.31
2019-06-08T07:29:54.882Z,64.21
2019-06-08T07:32:20.806Z,61.58
2019-06-08T07:34:47.815Z,62.26
2019-06-08T07:37:14.470Z,61.94
2019-06-08T07:39:40.363Z,61.29
2019-06-08T07:42:06.228Z,60.93
2019-06-08T07:44:32.109Z,61.62
2019-06-08T07:46:57.970Z,60.50
2019-06-08T07:49:23.857Z,60.01
2019-06-08T07:52:06.001Z,59.01
2019-06-08T07:54:17.513Z,58.61
2019-06-08T07:56:43.375Z,58.27
2019-06-08T07:59:09.263Z,57.08
2019-06-08T08:01:36.503Z,56.94
2019-06-08T08:04:02.645Z,54.10
2019-06-08T08:06:30.581Z,55.09
2019-06-08T08:08:56.861Z,54.88
2019-06-08T08:11:23.537Z,54.67
2019-06-08T08:13:51.149Z,54.62
2019-06-08T08:16:17.200Z,53.41
2019-06-08T08:18:43.083Z,51.65
2019-06-08T08:21:21.387Z,51.91
2019-06-08T08:23:38.242Z,53.47
2019-06-08T08:26:04.201Z,55.21
2019-06-08T08:28:30.110Z,57.18
2019-06-08T08:30:58.593Z,57.42
2019-06-08T08:33:23.741Z,57.31
2019-06-08T08:35:51.116Z,58.16
2019-06-08T08:38:17.786Z,58.98
2019-06-08T08:40:43.683Z,59.24
2019-06-08T08:43:09.729Z,59.18
2019-06-08T08:45:37.346Z,60.31
2019-06-08T08:48:21.200Z,59.87
2019-06-08T08:50:31.082Z,59.96
2019-06-08T08:53:00.308Z,60.06
2019-06-08T08:55:24.862Z,60.01
2019-06-08T08:57:52.152Z,60.04
2019-06-08T09:00:18.911Z,60.54
2019-06-08T09:02:44.798Z,60.81
2019-06-08T09:05:11.021Z,60.32
2019-06-08T09:07:38.564Z,61.03
2019-06-08T09:10:05.234Z,60.51
2019-06-08T09:12:31.596Z,61.52
2019-06-08T09:15:00.218Z,61.17
2019-06-08T09:17:27.876Z,61.29
2019-06-08T09:19:54.073Z,61.23
2019-06-08T09:22:20.680Z,60.99
2019-06-08T09:24:48.563Z,61.91
2019-06-08T09:27:14.558Z,61.20
2019-06-08T09:29:40.903Z,61.26
2019-06-08T09:32:08.172Z,60.92
2019-06-08T09:34:35.321Z,59.99
2019-06-08T09:37:02.954Z,59.88
2019-06-08T09:39:29.229Z,59.43
2019-06-08T09:41:58.198Z,58.48
2019-06-08T09:44:23.123Z,58.06
2019-06-08T09:46:48.998Z,57.96
2019-06-08T09:49:15.565Z,58.86
2019-06-08T09:51:41.452Z,58.54
2019-06-08T09:54:11.741Z,58.08
2019-06-08T09:56:37.808Z,57.36
2019-06-08T09:59:06.098Z,56.57
2019-06-08T10:01:31.253Z,55.23
2019-06-08T10:04:00.824Z,55.20
2019-06-08T10:06:24.990Z,56.00
2019-06-08T10:08:50.856Z,56.03
2019-06-08T10:11:16.779Z,55.95
2019-06-08T10:13:43.500Z,55.68
2019-06-08T10:16:10.449Z,55.18
2019-06-08T10:18:38.591Z,53.11
2019-06-08T10:21:06.142Z,53.76
2019-06-08T10:23:34.715Z,53.72
2019-06-08T10:26:01.372Z,54.22
2019-06-08T10:28:28.997Z,53.28
2019-06-08T10:30:56.048Z,53.48
2019-06-08T10:33:23.050Z,53.63
2019-06-08T10:35:48.949Z,53.36
2019-06-08T10:38:14.847Z,54.03
2019-06-08T10:41:07.118Z,53.92
2019-06-08T10:43:28.883Z,54.25
2019-06-08T10:45:54.721Z,54.52
2019-06-08T10:48:20.611Z,54.51
2019-06-08T10:50:47.497Z,52.88
2019-06-08T10:53:16.312Z,51.73
2019-06-08T10:55:41.326Z,51.89
2019-06-08T10:58:09.563Z,51.74
2019-06-08T11:00:34.951Z,52.32
2019-06-08T11:03:03.244Z,53.39
2019-06-08T11:05:28.635Z,54.17
2019-06-08T11:07:54.526Z,54.07
2019-06-08T11:10:20.401Z,54.55
2019-06-08T11:12:48.372Z,55.46
2019-06-08T11:15:14.130Z,55.84
2019-06-08T11:17:40.014Z,55.69
2019-06-08T11:20:07.408Z,55.70
2019-06-08T11:22:33.786Z,56.02
2019-06-08T11:25:00.750Z,55.82
2019-06-08T11:27:28.497Z,54.76
2019-06-08T11:29:54.511Z,54.94
2019-06-08T11:32:20.385Z,54.55
2019-06-08T11:34:48.669Z,54.41
2019-06-08T11:37:18.521Z,54.59
2019-06-08T11:39:41.803Z,53.95
2019-06-08T11:42:10.661Z,54.00
2019-06-08T11:44:35.490Z,54.17
2019-06-08T11:47:02.538Z,53.35
2019-06-08T11:49:28.478Z,53.92
2019-06-08T11:51:54.376Z,54.02
2019-06-08T11:54:33.231Z,56.51
2019-06-08T11:56:49.899Z,58.35
2019-06-08T11:59:15.984Z,58.81
2019-06-08T12:01:41.883Z,58.54
2019-06-08T12:04:08.178Z,58.27
2019-06-08T12:06:34.130Z,58.67
2019-06-08T12:09:00.311Z,57.50
2019-06-08T12:11:28.026Z,56.74
2019-06-08T12:13:53.988Z,57.41
2019-06-08T12:16:22.286Z,55.88
2019-06-08T12:18:49.290Z,56.41
2019-06-08T12:21:15.399Z,55.70
2019-06-08T12:23:41.295Z,55.62
2019-06-08T12:26:08.177Z,55.73
2019-06-08T12:28:34.148Z,55.18
2019-06-08T12:31:01.097Z,55.40
2019-06-08T12:33:30.347Z,55.75
2019-06-08T12:35:54.865Z,54.43
2019-06-08T12:38:20.752Z,54.10
2019-06-08T12:40:48.560Z,54.35
2019-06-08T12:43:15.756Z,55.66
2019-06-08T12:45:41.901Z,54.82
2019-06-08T12:48:10.326Z,55.61
2019-06-08T12:50:35.665Z,57.19
2019-06-08T12:53:02.248Z,58.86
2019-06-08T12:55:28.196Z,59.22
2019-06-08T12:57:55.000Z,59.78
2019-06-08T13:00:21.729Z,59.51
2019-06-08T13:02:51.017Z,60.16
2019-06-08T13:05:21.118Z,60.17
2019-06-08T13:07:47.394Z,60.72
2019-06-08T13:10:13.257Z,59.30
2019-06-08T13:12:40.967Z,59.08
2019-06-08T13:15:08.442Z,58.78
2019-06-08T13:17:34.933Z,58.65
2019-06-08T13:20:00.818Z,57.63
2019-06-08T13:22:29.037Z,57.11
2019-06-08T13:24:54.543Z,57.12
2019-06-08T13:27:22.789Z,57.00
2019-06-08T13:29:48.928Z,57.08
2019-06-08T13:32:16.512Z,55.17
2019-06-08T13:34:44.315Z,56.59
2019-06-08T13:37:10.582Z,55.67
2019-06-08T13:39:39.887Z,55.76
2019-06-08T13:42:07.767Z,56.44
2019-06-08T13:44:37.686Z,56.35
2019-06-08T13:47:03.481Z,56.73
2019-06-08T13:49:30.869Z,57.20
2019-06-08T13:51:58.406Z,56.63
2019-06-08T13:54:24.440Z,55.71
2019-06-08T13:56:50.687Z,55.68
2019-06-08T13:59:23.092Z,55.00
2019-06-08T14:01:47.788Z,56.06
2019-06-08T14:04:15.020Z,55.41
2019-06-08T14:06:44.929Z,54.81
2019-06-08T14:09:10.797Z,55.06
2019-06-08T14:11:36.658Z,55.19
2019-06-08T14:14:02.651Z,55.13
2019-06-08T14:16:29.727Z,54.65
2019-06-08T14:18:55.803Z,54.29
2019-06-08T14:21:29.432Z,54.16
2019-06-08T14:23:49.529Z,53.84
2019-06-08T14:26:15.385Z,53.35
2019-06-08T14:28:41.292Z,52.69
2019-06-08T14:31:08.120Z,52.35
2019-06-08T14:33:34.931Z,51.80
2019-06-08T14:36:01.602Z,52.26
2019-06-08T14:38:35.184Z,52.55
2019-06-08T14:40:55.292Z,52.99
2019-06-08T14:43:21.306Z,52.26
2019-06-08T14:45:47.572Z,51.98
2019-06-08T14:48:13.703Z,51.95
2019-06-08T14:50:41.013Z,51.65
2019-06-08T14:53:08.632Z,49.81
2019-06-08T14:55:34.694Z,49.86
2019-06-08T14:58:00.519Z,49.56
2019-06-08T15:00:27.768Z,49.11
2019-06-08T15:02:53.789Z,49.64
2019-06-08T15:05:19.992Z,50.63
2019-06-08T15:07:47.798Z,49.99
2019-06-08T15:10:14.051Z,50.31
2019-06-08T15:12:39.920Z,50.88
2019-06-08T15:15:08.310Z,50.35
2019-06-08T15:17:33.775Z,50.41
2019-06-08T15:19:59.666Z,50.01
2019-06-08T15:22:26.812Z,49.34
2019-06-08T15:24:53.323Z,49.55
2019-06-08T15:27:22.638Z,49.49
2019-06-08T15:29:47.808Z,49.35
2019-06-08T15:32:13.728Z,49.05
2019-06-08T15:34:39.614Z,49.00
2019-06-08T15:37:05.476Z,49.82
2019-06-08T15:39:33.879Z,50.74
2019-06-08T15:42:00.212Z,50.66
2019-06-08T15:44:28.642Z,50.23
2019-06-08T15:46:54.001Z,51.05
2019-06-08T15:49:19.959Z,50.44
2019-06-08T15:51:47.982Z,50.47
2019-06-08T15:54:13.605Z,48.64
2019-06-08T15:56:48.566Z,49.39
2019-06-08T15:59:09.239Z,50.07
2019-06-08T16:01:35.016Z,50.15
2019-06-08T16:04:03.956Z,50.24
2019-06-08T16:06:29.673Z,50.84
2019-06-08T16:08:55.574Z,51.02
2019-06-08T16:11:21.432Z,50.71
2019-06-08T16:13:47.320Z,51.54
2019-06-08T16:16:13.183Z,51.26
2019-06-08T16:18:39.068Z,51.38
2019-06-08T16:21:04.928Z,51.97
2019-06-08T16:23:31.808Z,52.38
2019-06-08T16:25:57.776Z,51.81
2019-06-08T16:28:23.664Z,52.17
2019-06-08T16:30:49.524Z,52.78
2019-06-08T16:33:15.411Z,51.90
2019-06-08T16:35:41.279Z,52.04
2019-06-08T16:38:07.175Z,51.83
2019-06-08T16:40:34.273Z,52.21
2019-06-08T16:43:00.253Z,52.29
2019-06-08T16:45:26.986Z,52.37
2019-06-08T16:47:52.924Z,52.15
2019-06-08T16:50:24.487Z,51.29
2019-06-08T16:52:46.653Z,50.91
2019-06-08T16:55:12.550Z,50.61
2019-06-08T16:57:41.098Z,50.32
2019-06-08T17:00:30.073Z,50.41
2019-06-08T17:02:35.123Z,51.23
2019-06-08T17:05:01.682Z,51.43
2019-06-08T17:07:27.740Z,51.40
2019-06-08T17:09:53.637Z,52.07
2019-06-08T17:12:19.500Z,52.36
2019-06-08T17:14:45.392Z,52.63
2019-06-08T17:17:11.258Z,52.51
2019-06-08T17:19:38.293Z,52.94
2019-06-08T17:22:04.660Z,53.23
2019-06-08T17:24:30.548Z,53.42
2019-06-08T17:26:56.768Z,53.99
2019-06-08T17:29:22.657Z,53.65
2019-06-08T17:31:48.619Z,53.87
2019-06-08T17:34:14.513Z,53.53
2019-06-08T17:36:40.717Z,53.88
2019-06-08T17:39:06.679Z,54.26
2019-06-08T17:41:32.549Z,54.04
2019-06-08T17:43:58.430Z,54.13
2019-06-08T17:46:24.290Z,54.34
2019-06-08T17:48:50.154Z,54.73
2019-06-08T17:51:16.039Z,54.17
2019-06-08T17:53:43.304Z,54.29
2019-06-08T17:56:09.494Z,53.36
2019-06-08T17:58:35.361Z,53.86
2019-06-08T18:01:01.244Z,53.58
2019-06-08T18:03:27.936Z,53.38
2019-06-08T18:05:53.921Z,53.56
2019-06-08T18:08:19.786Z,54.00
2019-06-08T18:10:45.683Z,54.47
2019-06-08T18:13:11.544Z,54.82
2019-06-08T18:15:39.972Z,55.12
2019-06-08T18:18:05.189Z,55.44
2019-06-08T18:20:31.085Z,55.89
2019-06-08T18:22:57.855Z,56.63
2019-06-08T18:25:23.948Z,56.62
2019-06-08T18:28:05.559Z,56.67
2019-06-08T18:30:19.163Z,57.22
2019-06-08T18:32:46.346Z,57.82
2019-06-08T18:35:12.854Z,57.95
2019-06-08T18:37:40.899Z,58.22
2019-06-08T18:40:07.262Z,58.49
2019-06-08T18:42:33.162Z,58.72
2019-06-08T18:44:59.047Z,59.64
2019-06-08T18:47:27.266Z,58.86
2019-06-08T18:49:52.700Z,58.65
2019-06-08T18:52:18.577Z,58.82
2019-06-08T18:54:45.763Z,58.96
2019-06-08T18:57:12.362Z,59.45
2019-06-08T18:59:43.151Z,62.84
2019-06-08T19:02:07.997Z,65.77
2019-06-08T19:04:33.974Z,66.62
2019-06-08T19:07:01.337Z,66.52
2019-06-08T19:09:27.555Z,67.22
2019-06-08T19:11:53.440Z,68.24
2019-06-08T19:14:20.833Z,67.09
2019-06-08T19:16:51.434Z,67.40
2019-06-08T19:19:14.649Z,67.87
2019-06-08T19:21:40.802Z,67.28
2019-06-08T19:24:09.624Z,67.15
2019-06-08T19:26:34.488Z,66.71
2019-06-08T19:29:00.572Z,66.12
2019-06-08T19:31:27.643Z,66.34
2019-06-08T19:33:53.685Z,66.22
2019-06-08T19:36:19.539Z,66.33
2019-06-08T19:38:48.052Z,66.39
2019-06-08T19:41:13.158Z,66.16
2019-06-08T19:43:41.508Z,66.08
2019-06-08T19:46:07.273Z,66.07
2019-06-08T19:48:33.209Z,65.96
2019-06-08T19:50:59.058Z,65.86
2019-06-08T19:53:24.951Z,65.98
2019-06-08T19:55:53.959Z,66.20
2019-06-08T19:58:18.609Z,66.37
2019-06-08T20:00:48.094Z,66.44
2019-06-08T20:03:12.437Z,66.61
2019-06-08T20:05:38.292Z,66.28
2019-06-08T20:08:04.176Z,66.34
2019-06-08T20:10:30.039Z,66.35
2019-06-08T20:12:57.619Z,66.49
2019-06-08T20:15:23.805Z,66.65
2019-06-08T20:17:51.442Z,66.97
2019-06-08T20:20:18.364Z,66.83
2019-06-08T20:22:44.354Z,67.01
2019-06-08T20:25:10.796Z,67.02
2019-06-08T20:27:37.279Z,67.40
2019-06-08T20:30:08.703Z,67.66
2019-06-08T20:32:32.058Z,67.95
2019-06-08T20:34:57.936Z,68.51
2019-06-08T20:37:23.808Z,68.65
2019-06-08T20:40:02.791Z,68.60
2019-06-08T20:42:17.505Z,68.71
2019-06-08T20:44:43.993Z,68.97
2019-06-08T20:47:09.859Z,69.03
2019-06-08T20:49:37.263Z,69.58
2019-06-08T20:52:03.310Z,69.65
2019-06-08T20:54:29.199Z,69.99
2019-06-08T20:56:55.066Z,70.26
2019-06-08T20:59:30.085Z,70.64
2019-06-08T21:01:50.490Z,70.85
2019-06-08T21:04:18.186Z,71.20
2019-06-08T21:06:44.100Z,71.53
2019-06-08T21:09:09.989Z,71.48
2019-06-08T21:11:37.945Z,71.44
2019-06-08T21:14:04.144Z,71.89
2019-06-08T21:16:30.001Z,71.98
2019-06-08T21:18:57.912Z,71.95
2019-06-08T21:21:23.648Z,72.16
2019-06-08T21:23:53.980Z,72.09
2019-06-08T21:26:18.406Z,72.08
2019-06-08T21:28:47.148Z,72.07
2019-06-08T21:31:12.176Z,72.15
2019-06-08T21:33:38.098Z,71.89
2019-06-08T21:36:05.193Z,71.86
2019-06-08T21:38:31.793Z,71.68
2019-06-08T21:41:02.076Z,71.56
2019-06-08T21:43:27.718Z,71.21
2019-06-08T21:45:54.637Z,71.15
2019-06-08T21:48:20.996Z,70.91
2019-06-08T21:50:48.963Z,70.95
2019-06-08T21:53:14.655Z,70.82
2019-06-08T21:55:40.545Z,70.58
2019-06-08T21:58:08.098Z,70.56
2019-06-08T22:00:42.185Z,70.54
2019-06-08T22:03:02.743Z,70.58
2019-06-08T22:05:28.655Z,70.65
2019-06-08T22:07:54.518Z,70.91
2019-06-08T22:10:20.412Z,70.92
2019-06-08T22:12:48.388Z,70.74
2019-06-08T22:15:14.268Z,71.13
2019-06-08T22:17:40.133Z,71.09
2019-06-08T22:20:08.039Z,71.10
2019-06-08T22:22:34.178Z,71.09
2019-06-08T22:25:01.149Z,71.31
2019-06-08T22:27:27.342Z,71.21
2019-06-08T22:29:53.618Z,71.21
2019-06-08T22:32:19.577Z,71.34
2019-06-08T22:34:47.566Z,71.18
2019-06-08T22:37:13.329Z,70.89
2019-06-08T22:39:39.190Z,70.76
2019-06-08T22:42:05.080Z,70.94
2019-06-08T22:44:30.937Z,70.59
2019-06-08T22:46:59.844Z,70.83
2019-06-08T22:49:24.593Z,70.69
2019-06-08T22:51:50.480Z,70.73
2019-06-08T22:54:17.062Z,70.71
2019-06-08T22:56:43.032Z,70.77
2019-06-08T22:59:09.194Z,70.74
2019-06-08T23:01:35.287Z,71.04
2019-06-08T23:04:03.875Z,70.76
2019-06-08T23:06:28.983Z,70.92
2019-06-08T23:08:57.022Z,70.62
2019-06-08T23:11:22.624Z,70.66
2019-06-08T23:13:48.482Z,70.56
2019-06-08T23:16:14.345Z,70.57
2019-06-08T23:18:40.232Z,70.80
2019-06-08T23:21:08.729Z,70.67
2019-06-08T23:23:33.870Z,70.53
2019-06-08T23:26:02.108Z,70.51
2019-06-08T23:28:28.282Z,70.64
2019-06-08T23:31:07.953Z,70.80
2019-06-08T23:33:21.985Z,71.04
2019-06-08T23:36:21.717Z,70.84
2019-06-08T23:38:17.275Z,70.80
2019-06-08T23:40:43.310Z,70.38
2019-06-08T23:43:09.210Z,70.35
2019-06-08T23:45:35.080Z,70.55
2019-06-08T23:48:02.574Z,70.58
2019-06-08T23:50:28.669Z,70.81
2019-06-08T23:52:54.556Z,71.02
2019-06-08T23:55:20.412Z,70.74
2019-06-08T23:57:46.304Z,70.87
